createdAt,value
2023-02-23T00:00:34.644Z,14.60
2023-02-23T00:03:03.423Z,14.23
2023-02-23T00:05:33.290Z,15.65
2023-02-23T00:08:02.509Z,14.30
2023-02-23T00:10:31.269Z,15.40
2023-02-23T00:12:59.588Z,16.73
2023-02-23T00:15:27.658Z,14.55
2023-02-23T00:17:56.304Z,15.85
2023-02-23T00:20:27.442Z,15.68
2023-02-23T00:22:56.311Z,15.75
2023-02-23T00:25:26.319Z,15.07
2023-02-23T00:27:54.881Z,14.77
2023-02-23T00:30:22.636Z,14.32
2023-02-23T00:32:52.512Z,17.08
2023-02-23T00:35:20.498Z,15.55
2023-02-23T00:37:49.658Z,17.35
2023-02-23T00:40:20.654Z,16.52
2023-02-23T00:42:52.312Z,17.38
2023-02-23T00:45:20.520Z,17.17
2023-02-23T00:47:49.070Z,18.13
2023-02-23T00:50:18.818Z,16.92
2023-02-23T00:52:46.559Z,16.75
2023-02-23T00:55:16.178Z,17.50
2023-02-23T00:57:43.991Z,16.75
2023-02-23T01:00:20.207Z,17.20
2023-02-23T01:02:48.870Z,17.92
2023-02-23T01:05:17.521Z,19.23
2023-02-23T01:07:47.126Z,18.02
2023-02-23T01:10:20.247Z,19.15
2023-02-23T01:12:49.590Z,18.73
2023-02-23T01:15:21.268Z,19.80
2023-02-23T01:17:49.251Z,18.75
2023-02-23T01:20:19.231Z,18.88
2023-02-23T01:22:49.116Z,19.33
2023-02-23T01:25:17.547Z,19.23
2023-02-23T01:27:46.445Z,19.15
2023-02-23T01:30:16.113Z,18.65
2023-02-23T01:32:45.176Z,18.08
2023-02-23T01:35:13.737Z,19.50
2023-02-23T01:37:43.264Z,18.75
2023-02-23T01:40:15.652Z,19.38
2023-02-23T01:42:46.915Z,20.58
2023-02-23T01:45:27.216Z,21.33
2023-02-23T01:48:01.676Z,21.10
2023-02-23T01:50:34.086Z,21.42
2023-02-23T01:53:02.149Z,21.58
2023-02-23T01:55:30.629Z,21.58
2023-02-23T01:58:06.626Z,20.50
2023-02-23T02:00:36.760Z,21.42
2023-02-23T02:03:14.012Z,20.92
2023-02-23T02:05:42.040Z,21.88
2023-02-23T02:08:11.601Z,21.45
2023-02-23T02:10:45.787Z,22.15
2023-02-23T02:13:22.808Z,20.92
2023-02-23T02:16:28.977Z,20.02
2023-02-23T02:19:22.120Z,20.80
2023-02-23T02:22:15.882Z,19.77
2023-02-23T02:25:23.759Z,20.58
2023-02-23T02:28:13.276Z,20.60
2023-02-23T02:31:13.186Z,20.30
2023-02-23T02:34:11.765Z,20.88
2023-02-23T02:37:13.483Z,20.52
2023-02-23T02:39:53.560Z,20.45
2023-02-23T02:42:29.201Z,19.70
2023-02-23T02:45:10.805Z,21.88
2023-02-23T02:47:44.090Z,20.08
2023-02-23T02:50:18.493Z,20.20
2023-02-23T02:52:54.163Z,18.83
2023-02-23T02:57:56.746Z,19.83
2023-02-23T03:00:49.025Z,19.35
2023-02-23T03:03:47.382Z,18.73
2023-02-23T03:06:33.840Z,19.70
2023-02-23T03:09:29.895Z,18.42
2023-02-23T03:12:24.202Z,18.80
2023-02-23T03:15:22.120Z,19.88
2023-02-23T03:18:16.184Z,19.20
2023-02-23T03:21:06.625Z,18.52
2023-02-23T03:24:03.200Z,18.23
2023-02-23T03:26:56.002Z,17.25
2023-02-23T03:29:50.306Z,16.00
2023-02-23T03:32:44.152Z,15.50
2023-02-23T03:35:37.477Z,15.27
2023-02-23T03:38:28.905Z,14.88
2023-02-23T03:41:15.221Z,19.70
2023-02-23T03:44:06.287Z,17.65
2023-02-23T03:46:52.645Z,18.00
2023-02-23T03:49:39.353Z,17.65
2023-02-23T03:52:32.510Z,19.40
2023-02-23T03:55:20.293Z,20.08
2023-02-23T03:58:10.689Z,19.40
2023-02-23T04:01:04.030Z,19.13
2023-02-23T04:03:52.405Z,17.35
2023-02-23T04:06:38.995Z,15.43
2023-02-23T04:09:26.325Z,14.27
2023-02-23T04:12:15.606Z,14.02
2023-02-23T04:14:48.870Z,14.43
2023-02-23T04:17:24.244Z,14.93
2023-02-23T04:19:52.702Z,13.93
2023-02-23T04:22:20.496Z,14.00
2023-02-23T04:24:48.506Z,15.73
2023-02-23T04:27:16.428Z,16.05
2023-02-23T04:29:46.472Z,14.35
2023-02-23T04:32:17.360Z,14.18
2023-02-23T04:34:46.020Z,14.73
2023-02-23T04:37:14.654Z,14.63
2023-02-23T04:39:42.917Z,13.63
2023-02-23T04:42:10.786Z,14.18
2023-02-23T04:44:38.520Z,13.10
2023-02-23T04:47:06.290Z,14.68
2023-02-23T04:49:35.433Z,16.48
2023-02-23T04:52:03.340Z,15.18
2023-02-23T04:54:31.010Z,15.35
2023-02-23T04:56:58.728Z,16.42
2023-02-23T04:59:26.872Z,15.48
2023-02-23T05:01:55.739Z,15.13
2023-02-23T05:04:23.650Z,15.10
2023-02-23T05:06:53.139Z,15.75
2023-02-23T05:09:20.992Z,15.45
2023-02-23T05:11:48.682Z,15.07
2023-02-23T05:14:16.379Z,14.60
2023-02-23T05:16:44.133Z,13.52
2023-02-23T05:19:12.010Z,13.82
2023-02-23T05:24:10.686Z,13.73
2023-02-23T05:26:38.544Z,13.63
2023-02-23T05:29:06.559Z,13.73
2023-02-23T05:31:34.349Z,13.73
2023-02-23T05:34:02.155Z,14.57
2023-02-23T05:36:30.232Z,14.95
2023-02-23T05:38:57.940Z,15.48
2023-02-23T05:41:27.033Z,15.57
2023-02-23T05:43:56.332Z,14.52
2023-02-23T05:46:26.569Z,14.15
2023-02-23T05:48:57.533Z,15.05
2023-02-23T05:51:25.776Z,13.30
2023-02-23T05:53:53.500Z,13.00
2023-02-23T05:56:21.559Z,13.23
2023-02-23T05:58:51.974Z,15.02
2023-02-23T06:01:21.031Z,13.85
2023-02-23T06:03:49.532Z,14.75
2023-02-23T06:06:18.354Z,13.60
2023-02-23T06:08:46.450Z,15.52
2023-02-23T06:11:14.378Z,14.18
2023-02-23T06:13:42.213Z,14.93
2023-02-23T06:16:11.358Z,15.20
2023-02-23T06:18:39.204Z,16.08
2023-02-23T06:21:07.162Z,15.88
2023-02-23T06:23:34.934Z,16.63
2023-02-23T06:26:02.822Z,15.60
2023-02-23T06:28:30.917Z,16.08
2023-02-23T06:30:58.763Z,16.80
2023-02-23T06:33:28.183Z,20.90
2023-02-23T06:35:56.174Z,19.67
2023-02-23T06:38:23.992Z,18.42
2023-02-23T06:40:52.203Z,19.30
2023-02-23T06:43:21.616Z,18.73
2023-02-23T06:45:50.885Z,19.05
2023-02-23T06:48:18.582Z,17.77
2023-02-23T06:50:47.625Z,18.85
2023-02-23T06:53:15.406Z,18.00
2023-02-23T06:55:43.073Z,17.13
2023-02-23T06:58:10.830Z,17.75
2023-02-23T07:00:42.861Z,15.95
2023-02-23T07:03:11.203Z,15.98
2023-02-23T07:05:39.023Z,15.70
2023-02-23T07:08:08.319Z,14.45
2023-02-23T07:10:36.065Z,13.73
2023-02-23T07:13:03.793Z,13.65
2023-02-23T07:15:31.539Z,14.63
2023-02-23T07:17:59.222Z,13.38
2023-02-23T07:20:26.924Z,13.65
2023-02-23T07:22:54.866Z,14.00
2023-02-23T07:25:24.043Z,13.35
2023-02-23T07:27:51.884Z,13.65
2023-02-23T07:30:19.947Z,13.65
2023-02-23T07:32:47.803Z,12.88
2023-02-23T07:35:15.634Z,12.13
2023-02-23T07:37:43.462Z,12.50
2023-02-23T07:40:12.606Z,13.35
2023-02-23T07:42:41.888Z,12.48
2023-02-23T07:45:10.690Z,14.13
2023-02-23T07:47:39.424Z,13.70
2023-02-23T07:50:10.477Z,14.68
2023-02-23T07:52:39.678Z,15.55
2023-02-23T07:55:08.763Z,16.65
2023-02-23T07:57:36.533Z,14.45
2023-02-23T08:00:06.751Z,16.13
2023-02-23T08:02:34.730Z,15.63
2023-02-23T08:05:02.427Z,15.35
2023-02-23T08:07:32.663Z,15.52
2023-02-23T08:10:00.553Z,15.13
2023-02-23T08:12:28.363Z,16.45
2023-02-23T08:14:56.182Z,15.60
2023-02-23T08:17:25.292Z,16.30
2023-02-23T08:19:53.063Z,16.30
2023-02-23T08:22:21.500Z,15.07
2023-02-23T08:24:49.221Z,16.48
2023-02-23T08:27:16.971Z,16.48
2023-02-23T08:29:44.735Z,16.50
2023-02-23T08:32:12.714Z,15.88
2023-02-23T08:34:43.888Z,15.75
2023-02-23T08:37:12.152Z,15.95
2023-02-23T08:39:40.318Z,15.20
2023-02-23T08:42:09.048Z,15.90
2023-02-23T08:44:36.767Z,15.57
2023-02-23T08:47:04.675Z,16.20
2023-02-23T08:49:33.434Z,16.65
2023-02-23T08:52:02.535Z,16.25
2023-02-23T08:54:30.571Z,16.40
2023-02-23T08:56:58.862Z,17.42
2023-02-23T08:59:27.134Z,17.63
2023-02-23T09:01:54.923Z,17.02
2023-02-23T09:04:22.639Z,17.48
2023-02-23T09:06:50.440Z,16.73
2023-02-23T09:09:19.642Z,17.75
2023-02-23T09:11:47.476Z,17.67
2023-02-23T09:14:15.449Z,16.95
2023-02-23T09:16:45.075Z,15.77
2023-02-23T09:19:13.137Z,17.00
2023-02-23T09:21:41.319Z,16.67
2023-02-23T09:24:09.030Z,16.25
2023-02-23T09:26:40.174Z,15.77
2023-02-23T09:29:08.613Z,15.82
2023-02-23T09:31:36.459Z,15.35
2023-02-23T09:34:04.242Z,16.55
2023-02-23T09:36:32.564Z,14.27
2023-02-23T09:39:00.323Z,15.60
2023-02-23T09:42:03.952Z,14.65
2023-02-23T09:44:44.052Z,13.35
2023-02-23T09:47:32.638Z,13.80
2023-02-23T09:50:03.716Z,13.23
2023-02-23T09:52:40.443Z,13.50
2023-02-23T09:55:12.131Z,13.07
2023-02-23T09:57:44.808Z,13.23
2023-02-23T10:00:22.792Z,12.23
2023-02-23T10:03:07.363Z,12.18
2023-02-23T10:05:47.834Z,12.65
2023-02-23T10:08:42.419Z,11.48
2023-02-23T10:11:22.453Z,11.68
2023-02-23T10:14:00.551Z,11.40
2023-02-23T10:16:39.713Z,11.30
2023-02-23T10:19:16.019Z,11.55
2023-02-23T10:21:49.989Z,11.20
2023-02-23T10:24:25.264Z,11.23
2023-02-23T10:26:56.322Z,10.63
2023-02-23T10:29:30.347Z,10.27
2023-02-23T10:32:01.746Z,10.07
2023-02-23T10:34:30.172Z,10.98
2023-02-23T10:37:01.797Z,10.70
2023-02-23T10:39:31.700Z,10.60
2023-02-23T10:42:03.137Z,10.18
2023-02-23T10:44:32.592Z,10.02
2023-02-23T10:47:03.803Z,10.85
2023-02-23T10:49:40.755Z,10.65
2023-02-23T10:52:13.791Z,10.63
2023-02-23T10:54:47.734Z,10.25
2023-02-23T10:57:27.875Z,10.13
2023-02-23T11:00:30.742Z,9.25
2023-02-23T11:02:59.409Z,9.90
2023-02-23T11:05:32.374Z,8.63
2023-02-23T11:08:20.572Z,8.82
2023-02-23T11:11:01.043Z,8.73
2023-02-23T11:13:34.531Z,8.52
2023-02-23T11:16:06.561Z,7.88
2023-02-23T11:18:34.612Z,7.72
2023-02-23T11:21:02.771Z,8.40
2023-02-23T11:23:35.457Z,8.60
2023-02-23T11:26:05.179Z,7.88
2023-02-23T11:28:36.707Z,7.75
2023-02-23T11:31:15.796Z,7.38
2023-02-23T11:33:44.080Z,7.35
2023-02-23T11:36:18.583Z,7.93
2023-02-23T11:38:47.688Z,7.18
2023-02-23T11:41:21.944Z,7.25
2023-02-23T11:43:51.549Z,7.32
2023-02-23T11:46:23.035Z,8.38
2023-02-23T11:48:55.154Z,8.23
2023-02-23T11:51:28.795Z,7.10
2023-02-23T11:53:57.088Z,7.75
2023-02-23T11:56:27.205Z,7.00
2023-02-23T11:58:57.699Z,7.80
2023-02-23T12:01:41.625Z,7.10
2023-02-23T12:04:10.810Z,7.35
2023-02-23T12:06:40.723Z,8.25
2023-02-23T12:09:18.550Z,6.78
2023-02-23T12:11:52.881Z,6.25
2023-02-23T12:14:30.408Z,5.55
2023-02-23T12:17:05.175Z,4.88
2023-02-23T12:19:39.038Z,4.97
2023-02-23T12:22:12.373Z,4.93
2023-02-23T12:24:46.255Z,5.35
2023-02-23T12:27:22.302Z,5.40
2023-02-23T12:30:06.274Z,5.88
2023-02-23T12:32:45.460Z,5.78
2023-02-23T12:35:20.271Z,6.10
2023-02-23T12:37:54.497Z,6.40
2023-02-23T12:40:27.998Z,6.60
2023-02-23T12:43:01.962Z,6.82
2023-02-23T12:45:36.806Z,9.02
2023-02-23T12:48:13.397Z,8.30
2023-02-23T12:50:48.258Z,8.32
2023-02-23T12:53:23.472Z,8.55
2023-02-23T12:56:13.711Z,8.52
2023-02-23T12:58:49.383Z,8.25
2023-02-23T13:01:24.621Z,8.50
2023-02-23T13:04:23.625Z,8.35
2023-02-23T13:06:58.703Z,7.63
2023-02-23T13:09:37.822Z,7.68
2023-02-23T13:12:36.240Z,8.15
2023-02-23T13:15:19.696Z,7.38
2023-02-23T13:17:51.826Z,7.95
2023-02-23T13:20:27.724Z,8.50
2023-02-23T13:23:00.734Z,8.18
2023-02-23T13:25:38.559Z,7.03
2023-02-23T13:28:13.978Z,7.97
2023-02-23T13:30:47.280Z,7.25
2023-02-23T13:33:29.730Z,7.72
2023-02-23T13:36:08.637Z,7.47
2023-02-23T13:38:47.755Z,7.15
2023-02-23T13:41:30.795Z,7.32
2023-02-23T13:44:02.511Z,6.97
2023-02-23T13:46:41.856Z,6.88
2023-02-23T13:49:24.781Z,7.03
2023-02-23T13:51:57.932Z,6.28
2023-02-23T13:54:29.623Z,6.30
2023-02-23T13:57:00.009Z,6.43
2023-02-23T13:59:30.984Z,6.43
2023-02-23T14:02:03.386Z,6.25
2023-02-23T14:04:38.207Z,6.63
2023-02-23T14:07:22.236Z,6.50
2023-02-23T14:09:55.811Z,5.30
2023-02-23T14:12:25.912Z,4.63
2023-02-23T14:14:53.823Z,4.47
2023-02-23T14:17:55.677Z,4.40
2023-02-23T14:20:47.090Z,3.30
2023-02-23T14:23:34.324Z,3.63
2023-02-23T14:26:16.397Z,4.13
2023-02-23T14:28:45.870Z,3.70
2023-02-23T14:31:23.830Z,3.63
2023-02-23T14:33:58.635Z,3.60
2023-02-23T14:36:37.850Z,3.10
2023-02-23T14:39:10.381Z,3.45
2023-02-23T14:41:44.963Z,3.08
2023-02-23T14:44:28.383Z,2.90
2023-02-23T14:47:02.439Z,3.25
2023-02-23T14:49:35.006Z,2.90
2023-02-23T14:52:07.943Z,2.95
2023-02-23T14:54:39.233Z,3.00
2023-02-23T14:57:17.625Z,3.10
2023-02-23T14:59:47.197Z,2.65
2023-02-23T15:02:21.160Z,2.65
2023-02-23T15:04:48.984Z,2.70
2023-02-23T15:07:24.078Z,3.58
2023-02-23T15:09:58.328Z,2.78
2023-02-23T15:12:30.627Z,2.67
2023-02-23T15:15:01.276Z,6.10
2023-02-23T15:17:31.971Z,4.13
2023-02-23T15:20:15.405Z,3.83
2023-02-23T15:22:47.857Z,3.58
2023-02-23T15:25:19.713Z,3.22
2023-02-23T15:27:48.668Z,2.80
2023-02-23T15:30:27.717Z,3.80
2023-02-23T15:33:03.870Z,4.47
2023-02-23T15:35:37.970Z,3.65
2023-02-23T15:38:17.931Z,4.70
2023-02-23T15:40:58.713Z,4.20
2023-02-23T15:43:29.854Z,5.07
2023-02-23T15:46:03.501Z,4.15
2023-02-23T15:48:42.706Z,4.93
2023-02-23T15:51:23.624Z,4.22
2023-02-23T15:53:51.730Z,4.60
2023-02-23T15:56:27.458Z,4.32
2023-02-23T15:58:59.103Z,4.22
2023-02-23T16:01:29.119Z,4.70
2023-02-23T16:04:01.645Z,3.85
2023-02-23T16:06:34.395Z,5.05
2023-02-23T16:09:21.632Z,4.22
2023-02-23T16:11:53.734Z,3.67
2023-02-23T16:14:23.370Z,3.75
2023-02-23T16:17:10.067Z,3.65
2023-02-23T16:19:41.156Z,3.33
2023-02-23T16:22:21.355Z,3.55
2023-02-23T16:24:58.107Z,3.78
2023-02-23T16:27:29.249Z,3.50
2023-02-23T16:30:00.174Z,3.38
2023-02-23T16:32:35.864Z,3.55
2023-02-23T16:35:12.217Z,3.35
2023-02-23T16:37:54.769Z,3.67
2023-02-23T16:40:22.677Z,3.25
2023-02-23T16:42:53.952Z,3.58
2023-02-23T16:45:22.681Z,3.63
2023-02-23T16:47:52.535Z,3.70
2023-02-23T16:50:23.050Z,3.80
2023-02-23T16:52:52.957Z,3.75
2023-02-23T16:55:25.771Z,3.88
2023-02-23T16:57:57.389Z,3.65
2023-02-23T17:00:28.688Z,3.88
2023-02-23T17:02:57.344Z,3.75
2023-02-23T17:05:26.214Z,3.90
2023-02-23T17:07:55.434Z,3.72
2023-02-23T17:10:26.120Z,3.80
2023-02-23T17:12:58.497Z,4.07
2023-02-23T17:15:30.129Z,4.20
2023-02-23T17:17:58.041Z,4.18
2023-02-23T17:20:26.750Z,4.85
2023-02-23T17:22:55.397Z,3.88
2023-02-23T17:25:26.505Z,4.00
2023-02-23T17:27:56.529Z,3.85
2023-02-23T17:30:24.932Z,3.63
2023-02-23T17:32:54.625Z,3.92
2023-02-23T17:35:23.341Z,4.00
2023-02-23T17:37:51.332Z,3.80
2023-02-23T17:40:28.746Z,3.60
2023-02-23T17:42:59.535Z,3.53
2023-02-23T17:45:27.808Z,3.63
2023-02-23T17:47:55.808Z,4.00
2023-02-23T17:50:24.208Z,3.88
2023-02-23T17:52:52.486Z,4.20
2023-02-23T17:55:22.214Z,4.18
2023-02-23T17:57:50.011Z,3.67
2023-02-23T18:00:21.339Z,5.15
2023-02-23T18:02:49.306Z,7.28
2023-02-23T18:05:17.395Z,6.43
2023-02-23T18:07:48.953Z,4.90
2023-02-23T18:10:17.505Z,6.85
2023-02-23T18:12:45.619Z,6.65
2023-02-23T18:15:13.482Z,7.32
2023-02-23T18:17:42.596Z,7.88
2023-02-23T18:20:15.031Z,8.30
2023-02-23T18:22:43.267Z,6.60
2023-02-23T18:25:21.021Z,4.68
2023-02-23T18:27:53.971Z,4.97
2023-02-23T18:30:22.900Z,4.82
2023-02-23T18:32:52.734Z,4.50
2023-02-23T18:35:20.546Z,4.55
2023-02-23T18:37:49.620Z,4.00
2023-02-23T18:40:21.486Z,4.78
2023-02-23T18:42:49.690Z,4.20
2023-02-23T18:45:18.141Z,4.47
2023-02-23T18:47:45.890Z,4.43
2023-02-23T18:50:19.171Z,4.50
2023-02-23T18:52:48.076Z,4.20
2023-02-23T18:55:16.450Z,3.90
2023-02-23T18:57:44.244Z,4.28
2023-02-23T19:00:14.365Z,3.92
2023-02-23T19:02:42.442Z,4.35
2023-02-23T19:05:12.882Z,13.93
2023-02-23T19:07:42.847Z,5.28
2023-02-23T19:10:14.716Z,5.70
2023-02-23T19:12:42.793Z,4.55
2023-02-23T19:15:12.336Z,5.40
2023-02-23T19:17:40.083Z,4.68
2023-02-23T19:20:12.775Z,5.00
2023-02-23T19:22:42.660Z,5.13
2023-02-23T19:25:14.552Z,5.10
2023-02-23T19:27:42.676Z,4.68
2023-02-23T19:30:12.105Z,4.40
2023-02-23T19:32:40.610Z,3.67
2023-02-23T19:35:11.110Z,4.07
2023-02-23T19:37:40.596Z,4.55
2023-02-23T19:40:11.807Z,4.20
2023-02-23T19:42:43.598Z,4.68
2023-02-23T19:45:11.492Z,4.25
2023-02-23T19:47:40.329Z,5.10
2023-02-23T19:50:13.659Z,4.22
2023-02-23T19:52:41.346Z,5.03
2023-02-23T19:55:11.344Z,5.20
2023-02-23T19:57:39.233Z,5.40
2023-02-23T20:00:12.133Z,6.30
2023-02-23T20:02:43.543Z,6.38
2023-02-23T20:05:12.147Z,6.00
2023-02-23T20:07:39.961Z,9.63
2023-02-23T20:10:10.301Z,9.15
2023-02-23T20:12:39.525Z,7.28
2023-02-23T20:15:08.586Z,5.53
2023-02-23T20:17:36.458Z,4.63
2023-02-23T20:20:06.302Z,4.53
2023-02-23T20:22:36.465Z,4.25
2023-02-23T20:25:05.917Z,3.70
2023-02-23T20:27:33.916Z,3.65
2023-02-23T20:30:03.009Z,4.53
2023-02-23T20:32:30.857Z,4.57
2023-02-23T20:35:01.567Z,4.50
2023-02-23T20:37:29.313Z,5.30
2023-02-23T20:39:57.057Z,4.60
2023-02-23T20:42:28.252Z,4.80
2023-02-23T20:44:56.206Z,3.72
2023-02-23T20:47:25.428Z,3.35
2023-02-23T20:49:53.192Z,3.95
2023-02-23T20:52:20.972Z,3.60
2023-02-23T20:54:48.735Z,3.78
2023-02-23T20:57:16.461Z,3.80
2023-02-23T20:59:44.222Z,3.83
2023-02-23T21:02:13.977Z,4.18
2023-02-23T21:04:44.234Z,4.07
2023-02-23T21:07:13.360Z,4.25
2023-02-23T21:09:41.636Z,4.60
2023-02-23T21:12:10.775Z,4.55
2023-02-23T21:14:38.566Z,5.00
2023-02-23T21:17:07.415Z,4.97
2023-02-23T21:19:36.330Z,4.97
2023-02-23T21:22:05.564Z,4.93
2023-02-23T21:24:34.719Z,4.60
2023-02-23T21:27:05.226Z,4.68
2023-02-23T21:29:33.006Z,4.47
2023-02-23T21:32:00.802Z,5.13
2023-02-23T21:34:28.565Z,5.03
2023-02-23T21:36:59.160Z,5.10
2023-02-23T21:39:28.460Z,5.82
2023-02-23T21:41:56.204Z,5.65
2023-02-23T21:44:23.951Z,5.43
2023-02-23T21:46:52.004Z,5.90
2023-02-23T21:49:20.683Z,4.97
2023-02-23T21:51:48.430Z,4.63
2023-02-23T21:54:16.467Z,4.80
2023-02-23T21:56:45.708Z,4.82
2023-02-23T21:59:13.511Z,4.80
2023-02-23T22:01:42.858Z,5.38
2023-02-23T22:04:15.181Z,5.80
2023-02-23T22:06:44.857Z,4.88
2023-02-23T22:09:15.472Z,5.53
2023-02-23T22:11:46.802Z,5.63
2023-02-23T22:14:16.609Z,5.38
2023-02-23T22:16:44.690Z,6.20
2023-02-23T22:19:13.220Z,5.40
2023-02-23T22:21:42.809Z,5.20
2023-02-23T22:24:12.953Z,5.65
2023-02-23T22:26:42.811Z,5.43
2023-02-23T22:29:11.984Z,5.40
2023-02-23T22:31:40.626Z,5.00
2023-02-23T22:34:08.521Z,5.40
2023-02-23T22:36:36.327Z,5.53
2023-02-23T22:39:06.902Z,5.72
2023-02-23T22:41:42.116Z,6.75
2023-02-23T22:44:13.486Z,5.88
2023-02-23T22:46:42.022Z,5.40
2023-02-23T22:49:10.665Z,6.20
2023-02-23T22:51:39.243Z,6.13
2023-02-23T22:54:07.411Z,5.15
2023-02-23T23:03:31.601Z,4.78
2023-02-23T23:06:02.515Z,4.68
2023-02-23T23:08:31.626Z,4.88
2023-02-23T23:11:09.243Z,5.10
2023-02-23T23:13:44.483Z,5.28
2023-02-23T23:16:30.208Z,5.03
2023-02-23T23:19:02.622Z,5.75
2023-02-23T23:21:32.732Z,6.05
2023-02-23T23:24:05.610Z,5.75
2023-02-23T23:26:34.823Z,5.47
2023-02-23T23:29:05.558Z,5.40
2023-02-23T23:31:38.066Z,5.85
2023-02-23T23:34:09.330Z,5.88
2023-02-23T23:36:42.681Z,6.30
2023-02-23T23:39:12.920Z,6.30
2023-02-23T23:41:42.936Z,5.93
2023-02-23T23:44:13.072Z,5.45
2023-02-23T23:46:44.684Z,5.38
2023-02-23T23:49:15.834Z,5.95
2023-02-23T23:51:45.624Z,5.35
2023-02-23T23:54:15.670Z,5.65
2023-02-23T23:56:44.496Z,5.72
2023-02-23T23:59:16.360Z,5.57
